sensor_id;sensor_type;location;lat;lon;timestamp;P1;durP1;ratioP1;P2;durP2;ratioP2
27899;SDS011;15243;50.726;7.080;2023-06-14T00:02:03;8.55;;;5.88;;
27899;SDS011;15243;50.726;7.080;2023-06-14T00:04:31;7.05;;;5.47;;
27899;SDS011;15243;50.726;7.080;2023-06-14T00:06:58;8.65;;;5.80;;
27899;SDS011;15243;50.726;7.080;2023-06-14T00:09:25;8.23;;;6.18;;
27899;SDS011;15243;50.726;7.080;2023-06-14T00:11:53;8.20;;;5.35;;
27899;SDS011;15243;50.726;7.080;2023-06-14T00:14:20;7.60;;;6.05;;
27899;SDS011;15243;50.726;7.080;2023-06-14T00:16:47;6.85;;;5.63;;
27899;SDS011;15243;50.726;7.080;2023-06-14T00:19:14;8.40;;;6.13;;
27899;SDS011;15243;50.726;7.080;2023-06-14T00:21:42;12.68;;;6.55;;
27899;SDS011;15243;50.726;7.080;2023-06-14T00:24:09;8.13;;;6.03;;
27899;SDS011;15243;50.726;7.080;2023-06-14T00:26:36;6.70;;;5.72;;
27899;SDS011;15243;50.726;7.080;2023-06-14T00:29:03;10.07;;;6.38;;
27899;SDS011;15243;50.726;7.080;2023-06-14T00:31:30;8.77;;;6.38;;
27899;SDS011;15243;50.726;7.080;2023-06-14T00:33:57;9.45;;;5.85;;
27899;SDS011;15243;50.726;7.080;2023-06-14T00:36:24;8.73;;;6.65;;
27899;SDS011;15243;50.726;7.080;2023-06-14T00:38:51;10.23;;;6.20;;
27899;SDS011;15243;50.726;7.080;2023-06-14T00:41:19;9.73;;;6.32;;
27899;SDS011;15243;50.726;7.080;2023-06-14T00:43:46;10.75;;;6.10;;
27899;SDS011;15243;50.726;7.080;2023-06-14T00:46:13;9.10;;;6.15;;
27899;SDS011;15243;50.726;7.080;2023-06-14T00:48:40;11.40;;;6.50;;
27899;SDS011;15243;50.726;7.080;2023-06-14T00:51:08;10.90;;;6.60;;
27899;SDS011;15243;50.726;7.080;2023-06-14T00:53:36;8.48;;;6.65;;
27899;SDS011;15243;50.726;7.080;2023-06-14T00:56:06;9.88;;;6.28;;
27899;SDS011;15243;50.726;7.080;2023-06-14T00:58:33;10.32;;;5.85;;
27899;SDS011;15243;50.726;7.080;2023-06-14T01:01:00;12.45;;;6.18;;
27899;SDS011;15243;50.726;7.080;2023-06-14T01:03:29;11.27;;;5.93;;
27899;SDS011;15243;50.726;7.080;2023-06-14T01:05:59;9.15;;;5.55;;
27899;SDS011;15243;50.726;7.080;2023-06-14T01:09:06;7.82;;;5.60;;
27899;SDS011;15243;50.726;7.080;2023-06-14T01:14:28;8.88;;;6.05;;
27899;SDS011;15243;50.726;7.080;2023-06-14T01:16:57;9.00;;;5.50;;
27899;SDS011;15243;50.726;7.080;2023-06-14T01:19:28;7.82;;;5.43;;
27899;SDS011;15243;50.726;7.080;2023-06-14T01:21:59;8.02;;;6.00;;
27899;SDS011;15243;50.726;7.080;2023-06-14T01:24:29;9.07;;;5.97;;
27899;SDS011;15243;50.726;7.080;2023-06-14T01:26:58;8.55;;;5.93;;
27899;SDS011;15243;50.726;7.080;2023-06-14T01:29:26;8.75;;;5.97;;
27899;SDS011;15243;50.726;7.080;2023-06-14T01:31:59;7.57;;;5.40;;
27899;SDS011;15243;50.726;7.080;2023-06-14T01:34:27;8.55;;;5.72;;
27899;SDS011;15243;50.726;7.080;2023-06-14T01:36:54;10.75;;;5.85;;
27899;SDS011;15243;50.726;7.080;2023-06-14T01:39:22;9.38;;;5.90;;
27899;SDS011;15243;50.726;7.080;2023-06-14T01:41:50;8.90;;;5.72;;
27899;SDS011;15243;50.726;7.080;2023-06-14T01:44:18;11.48;;;6.03;;
27899;SDS011;15243;50.726;7.080;2023-06-14T01:46:46;7.55;;;5.78;;
27899;SDS011;15243;50.726;7.080;2023-06-14T01:49:14;7.57;;;5.80;;
27899;SDS011;15243;50.726;7.080;2023-06-14T01:51:41;8.90;;;5.70;;
27899;SDS011;15243;50.726;7.080;2023-06-14T01:54:08;8.00;;;5.82;;
27899;SDS011;15243;50.726;7.080;2023-06-14T01:56:35;11.80;;;6.15;;
27899;SDS011;15243;50.726;7.080;2023-06-14T01:59:02;13.10;;;6.18;;
27899;SDS011;15243;50.726;7.080;2023-06-14T02:01:29;8.40;;;6.57;;
27899;SDS011;15243;50.726;7.080;2023-06-14T02:03:57;9.25;;;6.18;;
27899;SDS011;15243;50.726;7.080;2023-06-14T02:06:26;7.13;;;5.70;;
27899;SDS011;15243;50.726;7.080;2023-06-14T02:08:55;7.88;;;6.00;;
27899;SDS011;15243;50.726;7.080;2023-06-14T02:11:22;9.10;;;6.22;;
27899;SDS011;15243;50.726;7.080;2023-06-14T02:13:49;8.65;;;5.80;;
27899;SDS011;15243;50.726;7.080;2023-06-14T02:16:16;9.77;;;6.53;;
27899;SDS011;15243;50.726;7.080;2023-06-14T02:18:43;7.30;;;6.13;;
27899;SDS011;15243;50.726;7.080;2023-06-14T02:21:10;9.43;;;6.10;;
27899;SDS011;15243;50.726;7.080;2023-06-14T02:23:37;9.25;;;6.13;;
27899;SDS011;15243;50.726;7.080;2023-06-14T02:26:04;9.38;;;5.85;;
27899;SDS011;15243;50.726;7.080;2023-06-14T02:28:32;7.88;;;6.05;;
27899;SDS011;15243;50.726;7.080;2023-06-14T02:30:59;8.63;;;6.00;;
27899;SDS011;15243;50.726;7.080;2023-06-14T02:33:27;7.63;;;6.10;;
27899;SDS011;15243;50.726;7.080;2023-06-14T02:35:53;7.85;;;6.20;;
27899;SDS011;15243;50.726;7.080;2023-06-14T02:38:20;6.43;;;5.72;;
27899;SDS011;15243;50.726;7.080;2023-06-14T02:40:47;8.30;;;5.75;;
27899;SDS011;15243;50.726;7.080;2023-06-14T02:43:14;10.00;;;6.25;;
27899;SDS011;15243;50.726;7.080;2023-06-14T02:45:44;10.20;;;6.85;;
27899;SDS011;15243;50.726;7.080;2023-06-14T02:48:11;9.52;;;6.40;;
27899;SDS011;15243;50.726;7.080;2023-06-14T02:50:38;7.80;;;6.30;;
27899;SDS011;15243;50.726;7.080;2023-06-14T02:56:01;12.52;;;9.30;;
27899;SDS011;15243;50.726;7.080;2023-06-14T02:58:30;9.65;;;7.45;;
27899;SDS011;15243;50.726;7.080;2023-06-14T03:00:57;10.27;;;7.82;;
27899;SDS011;15243;50.726;7.080;2023-06-14T03:03:30;11.73;;;7.03;;
27899;SDS011;15243;50.726;7.080;2023-06-14T03:05:58;9.77;;;6.22;;
27899;SDS011;15243;50.726;7.080;2023-06-14T03:08:31;8.18;;;6.72;;
27899;SDS011;15243;50.726;7.080;2023-06-14T03:11:05;8.07;;;6.85;;
27899;SDS011;15243;50.726;7.080;2023-06-14T03:13:32;9.55;;;6.80;;
27899;SDS011;15243;50.726;7.080;2023-06-14T03:15:59;9.90;;;6.93;;
27899;SDS011;15243;50.726;7.080;2023-06-14T03:18:29;10.82;;;7.00;;
27899;SDS011;15243;50.726;7.080;2023-06-14T03:20:57;9.27;;;6.90;;
27899;SDS011;15243;50.726;7.080;2023-06-14T03:23:24;10.07;;;7.38;;
27899;SDS011;15243;50.726;7.080;2023-06-14T03:25:51;9.23;;;6.53;;
27899;SDS011;15243;50.726;7.080;2023-06-14T03:28:19;8.48;;;7.28;;
27899;SDS011;15243;50.726;7.080;2023-06-14T03:30:47;10.05;;;7.13;;
27899;SDS011;15243;50.726;7.080;2023-06-14T03:33:15;11.38;;;6.78;;
27899;SDS011;15243;50.726;7.080;2023-06-14T03:35:42;10.13;;;6.75;;
27899;SDS011;15243;50.726;7.080;2023-06-14T03:38:10;16.35;;;7.30;;
27899;SDS011;15243;50.726;7.080;2023-06-14T03:40:37;9.38;;;7.13;;
27899;SDS011;15243;50.726;7.080;2023-06-14T03:43:04;7.75;;;6.40;;
27899;SDS011;15243;50.726;7.080;2023-06-14T03:45:31;8.80;;;6.80;;
27899;SDS011;15243;50.726;7.080;2023-06-14T03:47:58;8.80;;;6.03;;
27899;SDS011;15243;50.726;7.080;2023-06-14T03:50:27;9.93;;;6.32;;
27899;SDS011;15243;50.726;7.080;2023-06-14T03:52:54;7.47;;;6.32;;
27899;SDS011;15243;50.726;7.080;2023-06-14T03:55:21;9.90;;;6.57;;
27899;SDS011;15243;50.726;7.080;2023-06-14T03:57:55;7.88;;;6.57;;
27899;SDS011;15243;50.726;7.080;2023-06-14T04:00:23;9.32;;;7.00;;
27899;SDS011;15243;50.726;7.080;2023-06-14T04:02:50;11.77;;;7.07;;
27899;SDS011;15243;50.726;7.080;2023-06-14T04:05:17;9.32;;;7.10;;
27899;SDS011;15243;50.726;7.080;2023-06-14T04:07:47;8.98;;;6.55;;
27899;SDS011;15243;50.726;7.080;2023-06-14T04:10:15;10.02;;;6.75;;
27899;SDS011;15243;50.726;7.080;2023-06-14T04:12:42;12.25;;;6.25;;
27899;SDS011;15243;50.726;7.080;2023-06-14T04:15:10;9.13;;;6.72;;
27899;SDS011;15243;50.726;7.080;2023-06-14T04:17:40;10.43;;;6.55;;
27899;SDS011;15243;50.726;7.080;2023-06-14T04:20:07;12.27;;;6.82;;
27899;SDS011;15243;50.726;7.080;2023-06-14T04:22:36;10.48;;;6.95;;
27899;SDS011;15243;50.726;7.080;2023-06-14T04:25:03;10.15;;;6.40;;
27899;SDS011;15243;50.726;7.080;2023-06-14T04:27:32;9.90;;;6.82;;
27899;SDS011;15243;50.726;7.080;2023-06-14T04:30:03;8.98;;;6.15;;
27899;SDS011;15243;50.726;7.080;2023-06-14T04:32:31;9.43;;;6.72;;
27899;SDS011;15243;50.726;7.080;2023-06-14T04:35:06;7.30;;;6.10;;
27899;SDS011;15243;50.726;7.080;2023-06-14T04:37:34;9.82;;;6.50;;
27899;SDS011;15243;50.726;7.080;2023-06-14T04:40:06;13.15;;;7.05;;
27899;SDS011;15243;50.726;7.080;2023-06-14T04:42:37;11.73;;;7.47;;
27899;SDS011;15243;50.726;7.080;2023-06-14T04:45:07;8.95;;;6.78;;
27899;SDS011;15243;50.726;7.080;2023-06-14T04:47:35;10.02;;;6.68;;
27899;SDS011;15243;50.726;7.080;2023-06-14T04:50:04;12.98;;;7.13;;
27899;SDS011;15243;50.726;7.080;2023-06-14T04:52:31;10.20;;;7.07;;
27899;SDS011;15243;50.726;7.080;2023-06-14T04:54:59;9.20;;;6.75;;
27899;SDS011;15243;50.726;7.080;2023-06-14T04:57:26;10.65;;;6.60;;
27899;SDS011;15243;50.726;7.080;2023-06-14T04:59:53;13.98;;;7.10;;
27899;SDS011;15243;50.726;7.080;2023-06-14T05:02:22;10.40;;;6.90;;
27899;SDS011;15243;50.726;7.080;2023-06-14T05:04:50;12.80;;;7.32;;
27899;SDS011;15243;50.726;7.080;2023-06-14T05:07:18;14.90;;;6.45;;
27899;SDS011;15243;50.726;7.080;2023-06-14T05:09:46;9.75;;;6.72;;
27899;SDS011;15243;50.726;7.080;2023-06-14T05:12:13;8.88;;;5.22;;
27899;SDS011;15243;50.726;7.080;2023-06-14T05:14:44;9.20;;;6.03;;
27899;SDS011;15243;50.726;7.080;2023-06-14T05:17:12;12.20;;;5.30;;
27899;SDS011;15243;50.726;7.080;2023-06-14T05:19:39;10.75;;;5.60;;
27899;SDS011;15243;50.726;7.080;2023-06-14T05:22:07;11.52;;;6.07;;
27899;SDS011;15243;50.726;7.080;2023-06-14T05:24:34;10.45;;;5.40;;
27899;SDS011;15243;50.726;7.080;2023-06-14T05:27:01;8.68;;;4.93;;
27899;SDS011;15243;50.726;7.080;2023-06-14T05:29:28;8.32;;;5.55;;
27899;SDS011;15243;50.726;7.080;2023-06-14T05:31:56;10.23;;;5.25;;
27899;SDS011;15243;50.726;7.080;2023-06-14T05:34:23;8.10;;;5.28;;
27899;SDS011;15243;50.726;7.080;2023-06-14T05:36:50;9.15;;;5.03;;
27899;SDS011;15243;50.726;7.080;2023-06-14T05:39:17;7.32;;;4.65;;
27899;SDS011;15243;50.726;7.080;2023-06-14T05:41:44;9.38;;;5.05;;
27899;SDS011;15243;50.726;7.080;2023-06-14T05:44:13;12.15;;;5.10;;
27899;SDS011;15243;50.726;7.080;2023-06-14T05:46:40;8.90;;;4.43;;
27899;SDS011;15243;50.726;7.080;2023-06-14T05:49:08;11.18;;;4.68;;
27899;SDS011;15243;50.726;7.080;2023-06-14T05:51:35;7.10;;;4.38;;
27899;SDS011;15243;50.726;7.080;2023-06-14T05:54:02;12.05;;;4.78;;
27899;SDS011;15243;50.726;7.080;2023-06-14T05:56:29;11.10;;;4.60;;
27899;SDS011;15243;50.726;7.080;2023-06-14T05:58:56;7.40;;;4.55;;
27899;SDS011;15243;50.726;7.080;2023-06-14T06:01:23;8.93;;;4.40;;
27899;SDS011;15243;50.726;7.080;2023-06-14T06:03:50;8.23;;;4.18;;
27899;SDS011;15243;50.726;7.080;2023-06-14T06:06:17;11.57;;;3.92;;
27899;SDS011;15243;50.726;7.080;2023-06-14T06:08:44;8.85;;;4.45;;
27899;SDS011;15243;50.726;7.080;2023-06-14T06:11:11;11.52;;;4.32;;
27899;SDS011;15243;50.726;7.080;2023-06-14T06:13:39;10.50;;;4.35;;
27899;SDS011;15243;50.726;7.080;2023-06-14T06:16:07;8.85;;;4.25;;
27899;SDS011;15243;50.726;7.080;2023-06-14T06:18:34;10.25;;;4.20;;
27899;SDS011;15243;50.726;7.080;2023-06-14T06:21:03;10.07;;;4.18;;
27899;SDS011;15243;50.726;7.080;2023-06-14T06:23:31;10.63;;;4.43;;
27899;SDS011;15243;50.726;7.080;2023-06-14T06:25:58;10.07;;;4.18;;
27899;SDS011;15243;50.726;7.080;2023-06-14T06:28:25;7.28;;;4.10;;
27899;SDS011;15243;50.726;7.080;2023-06-14T06:30:52;10.43;;;4.53;;
27899;SDS011;15243;50.726;7.080;2023-06-14T06:33:21;11.60;;;3.75;;
27899;SDS011;15243;50.726;7.080;2023-06-14T06:35:48;9.10;;;4.20;;
27899;SDS011;15243;50.726;7.080;2023-06-14T06:38:15;6.53;;;3.92;;
27899;SDS011;15243;50.726;7.080;2023-06-14T06:40:42;8.40;;;4.22;;
27899;SDS011;15243;50.726;7.080;2023-06-14T06:43:08;6.57;;;3.63;;
27899;SDS011;15243;50.726;7.080;2023-06-14T06:45:36;8.15;;;4.63;;
27899;SDS011;15243;50.726;7.080;2023-06-14T06:48:03;11.85;;;4.35;;
27899;SDS011;15243;50.726;7.080;2023-06-14T06:50:30;9.20;;;4.30;;
27899;SDS011;15243;50.726;7.080;2023-06-14T06:52:57;11.68;;;4.20;;
27899;SDS011;15243;50.726;7.080;2023-06-14T06:55:24;7.28;;;3.80;;
27899;SDS011;15243;50.726;7.080;2023-06-14T06:57:51;10.85;;;4.13;;
27899;SDS011;15243;50.726;7.080;2023-06-14T07:00:20;12.27;;;3.60;;
27899;SDS011;15243;50.726;7.080;2023-06-14T07:02:47;6.38;;;3.45;;
27899;SDS011;15243;50.726;7.080;2023-06-14T07:05:14;6.03;;;3.45;;
27899;SDS011;15243;50.726;7.080;2023-06-14T07:07:42;6.97;;;3.75;;
27899;SDS011;15243;50.726;7.080;2023-06-14T07:10:09;6.60;;;3.70;;
27899;SDS011;15243;50.726;7.080;2023-06-14T07:12:36;5.78;;;3.05;;
27899;SDS011;15243;50.726;7.080;2023-06-14T07:15:09;7.07;;;3.55;;
27899;SDS011;15243;50.726;7.080;2023-06-14T07:17:36;7.50;;;3.58;;
27899;SDS011;15243;50.726;7.080;2023-06-14T07:20:04;6.97;;;3.50;;
27899;SDS011;15243;50.726;7.080;2023-06-14T07:22:34;7.35;;;3.72;;
27899;SDS011;15243;50.726;7.080;2023-06-14T07:25:01;7.80;;;2.65;;
27899;SDS011;15243;50.726;7.080;2023-06-14T07:27:29;5.63;;;3.03;;
27899;SDS011;15243;50.726;7.080;2023-06-14T07:29:56;4.82;;;2.78;;
27899;SDS011;15243;50.726;7.080;2023-06-14T07:32:23;10.27;;;3.20;;
27899;SDS011;15243;50.726;7.080;2023-06-14T07:34:51;4.82;;;3.10;;
27899;SDS011;15243;50.726;7.080;2023-06-14T07:37:18;9.68;;;3.33;;
27899;SDS011;15243;50.726;7.080;2023-06-14T07:39:45;10.82;;;2.88;;
27899;SDS011;15243;50.726;7.080;2023-06-14T07:42:12;4.38;;;2.60;;
27899;SDS011;15243;50.726;7.080;2023-06-14T07:44:39;5.20;;;2.90;;
27899;SDS011;15243;50.726;7.080;2023-06-14T07:47:06;5.15;;;2.72;;
27899;SDS011;15243;50.726;7.080;2023-06-14T07:49:33;9.02;;;2.60;;
27899;SDS011;15243;50.726;7.080;2023-06-14T07:52:00;4.95;;;2.70;;
27899;SDS011;15243;50.726;7.080;2023-06-14T07:54:27;4.13;;;2.28;;
27899;SDS011;15243;50.726;7.080;2023-06-14T07:56:55;5.53;;;2.92;;
27899;SDS011;15243;50.726;7.080;2023-06-14T07:59:22;7.68;;;2.40;;
27899;SDS011;15243;50.726;7.080;2023-06-14T08:01:49;4.45;;;2.75;;
27899;SDS011;15243;50.726;7.080;2023-06-14T08:04:16;8.18;;;2.67;;
27899;SDS011;15243;50.726;7.080;2023-06-14T08:06:43;5.28;;;2.67;;
27899;SDS011;15243;50.726;7.080;2023-06-14T08:09:12;2.90;;;2.03;;
27899;SDS011;15243;50.726;7.080;2023-06-14T08:11:39;4.28;;;2.45;;
27899;SDS011;15243;50.726;7.080;2023-06-14T08:14:06;4.38;;;2.20;;
27899;SDS011;15243;50.726;7.080;2023-06-14T08:16:34;6.07;;;2.20;;
27899;SDS011;15243;50.726;7.080;2023-06-14T08:19:02;5.20;;;2.40;;
27899;SDS011;15243;50.726;7.080;2023-06-14T08:21:30;4.45;;;2.10;;
27899;SDS011;15243;50.726;7.080;2023-06-14T08:24:00;6.63;;;2.22;;
27899;SDS011;15243;50.726;7.080;2023-06-14T08:26:27;5.68;;;2.67;;
27899;SDS011;15243;50.726;7.080;2023-06-14T08:28:58;5.60;;;2.13;;
27899;SDS011;15243;50.726;7.080;2023-06-14T08:31:25;4.15;;;2.03;;
27899;SDS011;15243;50.726;7.080;2023-06-14T08:33:52;2.95;;;2.00;;
27899;SDS011;15243;50.726;7.080;2023-06-14T08:36:19;4.82;;;1.63;;
27899;SDS011;15243;50.726;7.080;2023-06-14T08:38:46;3.75;;;1.88;;
27899;SDS011;15243;50.726;7.080;2023-06-14T08:41:13;3.13;;;2.05;;
27899;SDS011;15243;50.726;7.080;2023-06-14T08:43:48;2.92;;;1.70;;
27899;SDS011;15243;50.726;7.080;2023-06-14T08:46:17;6.20;;;2.30;;
27899;SDS011;15243;50.726;7.080;2023-06-14T08:48:48;2.97;;;2.10;;
27899;SDS011;15243;50.726;7.080;2023-06-14T08:51:19;3.75;;;1.70;;
27899;SDS011;15243;50.726;7.080;2023-06-14T08:53:51;4.80;;;2.40;;
27899;SDS011;15243;50.726;7.080;2023-06-14T08:56:20;7.60;;;2.47;;
27899;SDS011;15243;50.726;7.080;2023-06-14T08:58:48;2.13;;;1.90;;
27899;SDS011;15243;50.726;7.080;2023-06-14T09:01:15;3.50;;;2.30;;
27899;SDS011;15243;50.726;7.080;2023-06-14T09:03:44;2.88;;;1.88;;
27899;SDS011;15243;50.726;7.080;2023-06-14T09:06:12;4.43;;;1.77;;
27899;SDS011;15243;50.726;7.080;2023-06-14T09:08:42;3.90;;;2.00;;
27899;SDS011;15243;50.726;7.080;2023-06-14T09:11:13;3.67;;;1.88;;
27899;SDS011;15243;50.726;7.080;2023-06-14T09:13:42;5.60;;;2.10;;
27899;SDS011;15243;50.726;7.080;2023-06-14T09:16:09;3.05;;;1.88;;
27899;SDS011;15243;50.726;7.080;2023-06-14T09:18:40;3.25;;;2.47;;
27899;SDS011;15243;50.726;7.080;2023-06-14T09:21:15;2.25;;;1.60;;
27899;SDS011;15243;50.726;7.080;2023-06-14T09:23:44;5.22;;;1.73;;
27899;SDS011;15243;50.726;7.080;2023-06-14T09:26:16;4.47;;;1.80;;
27899;SDS011;15243;50.726;7.080;2023-06-14T09:28:46;2.35;;;1.88;;
27899;SDS011;15243;50.726;7.080;2023-06-14T09:31:16;6.75;;;1.80;;
27899;SDS011;15243;50.726;7.080;2023-06-14T09:33:44;3.75;;;1.92;;
27899;SDS011;15243;50.726;7.080;2023-06-14T09:36:16;6.07;;;1.95;;
27899;SDS011;15243;50.726;7.080;2023-06-14T09:39:03;2.65;;;1.50;;
27899;SDS011;15243;50.726;7.080;2023-06-14T09:41:35;3.47;;;1.70;;
27899;SDS011;15243;50.726;7.080;2023-06-14T09:44:09;2.38;;;2.10;;
27899;SDS011;15243;50.726;7.080;2023-06-14T09:46:46;3.20;;;1.67;;
27899;SDS011;15243;50.726;7.080;2023-06-14T09:49:14;2.85;;;1.90;;
27899;SDS011;15243;50.726;7.080;2023-06-14T09:51:43;3.00;;;1.67;;
27899;SDS011;15243;50.726;7.080;2023-06-14T09:54:14;2.05;;;1.55;;
27899;SDS011;15243;50.726;7.080;2023-06-14T09:56:46;5.22;;;1.83;;
27899;SDS011;15243;50.726;7.080;2023-06-14T10:01:44;2.55;;;1.75;;
27899;SDS011;15243;50.726;7.080;2023-06-14T10:04:13;3.20;;;1.60;;
27899;SDS011;15243;50.726;7.080;2023-06-14T10:06:45;5.90;;;1.85;;
27899;SDS011;15243;50.726;7.080;2023-06-14T10:09:13;2.58;;;1.70;;
27899;SDS011;15243;50.726;7.080;2023-06-14T10:11:41;6.85;;;1.88;;
27899;SDS011;15243;50.726;7.080;2023-06-14T10:14:11;4.85;;;1.77;;
27899;SDS011;15243;50.726;7.080;2023-06-14T10:19:29;2.42;;;1.60;;
27899;SDS011;15243;50.726;7.080;2023-06-14T10:22:06;6.07;;;2.25;;
27899;SDS011;15243;50.726;7.080;2023-06-14T10:24:44;2.83;;;1.90;;
27899;SDS011;15243;50.726;7.080;2023-06-14T10:27:15;3.60;;;2.03;;
27899;SDS011;15243;50.726;7.080;2023-06-14T10:30:06;4.28;;;1.70;;
27899;SDS011;15243;50.726;7.080;2023-06-14T10:32:34;3.72;;;1.73;;
27899;SDS011;15243;50.726;7.080;2023-06-14T10:35:04;2.60;;;1.77;;
27899;SDS011;15243;50.726;7.080;2023-06-14T10:37:35;3.20;;;1.90;;
27899;SDS011;15243;50.726;7.080;2023-06-14T10:40:02;3.40;;;1.80;;
27899;SDS011;15243;50.726;7.080;2023-06-14T10:42:32;5.88;;;1.70;;
27899;SDS011;15243;50.726;7.080;2023-06-14T10:44:59;3.38;;;1.85;;
27899;SDS011;15243;50.726;7.080;2023-06-14T10:50:10;1.90;;;1.63;;
27899;SDS011;15243;50.726;7.080;2023-06-14T10:52:41;1.73;;;1.60;;
27899;SDS011;15243;50.726;7.080;2023-06-14T10:55:13;2.80;;;1.70;;
27899;SDS011;15243;50.726;7.080;2023-06-14T11:00:20;2.67;;;1.80;;
27899;SDS011;15243;50.726;7.080;2023-06-14T11:11:11;2.22;;;2.03;;
27899;SDS011;15243;50.726;7.080;2023-06-14T11:13:41;5.68;;;1.90;;
27899;SDS011;15243;50.726;7.080;2023-06-14T11:16:12;2.65;;;1.75;;
27899;SDS011;15243;50.726;7.080;2023-06-14T11:18:39;3.25;;;1.80;;
27899;SDS011;15243;50.726;7.080;2023-06-14T11:21:07;8.05;;;1.92;;
27899;SDS011;15243;50.726;7.080;2023-06-14T11:23:37;10.38;;;1.88;;
27899;SDS011;15243;50.726;7.080;2023-06-14T11:26:04;46.38;;;3.10;;
27899;SDS011;15243;50.726;7.080;2023-06-14T11:28:38;3.47;;;1.98;;
27899;SDS011;15243;50.726;7.080;2023-06-14T11:31:06;10.18;;;2.05;;
27899;SDS011;15243;50.726;7.080;2023-06-14T11:33:34;6.30;;;2.10;;
27899;SDS011;15243;50.726;7.080;2023-06-14T11:36:02;14.75;;;2.15;;
27899;SDS011;15243;50.726;7.080;2023-06-14T11:38:34;6.22;;;1.83;;
27899;SDS011;15243;50.726;7.080;2023-06-14T11:41:03;7.30;;;1.85;;
27899;SDS011;15243;50.726;7.080;2023-06-14T11:43:30;5.45;;;1.70;;
27899;SDS011;15243;50.726;7.080;2023-06-14T11:46:00;2.95;;;1.73;;
27899;SDS011;15243;50.726;7.080;2023-06-14T11:48:38;4.07;;;2.00;;
27899;SDS011;15243;50.726;7.080;2023-06-14T11:51:06;3.17;;;1.70;;
27899;SDS011;15243;50.726;7.080;2023-06-14T11:53:33;6.22;;;1.90;;
27899;SDS011;15243;50.726;7.080;2023-06-14T11:56:00;3.75;;;1.90;;
27899;SDS011;15243;50.726;7.080;2023-06-14T11:58:29;1.60;;;1.30;;
27899;SDS011;15243;50.726;7.080;2023-06-14T12:00:56;2.72;;;1.40;;
27899;SDS011;15243;50.726;7.080;2023-06-14T12:03:24;5.57;;;1.30;;
27899;SDS011;15243;50.726;7.080;2023-06-14T12:06:06;2.17;;;1.33;;
27899;SDS011;15243;50.726;7.080;2023-06-14T12:08:35;4.13;;;1.52;;
27899;SDS011;15243;50.726;7.080;2023-06-14T12:11:10;4.13;;;1.08;;
27899;SDS011;15243;50.726;7.080;2023-06-14T12:13:41;1.90;;;1.15;;
27899;SDS011;15243;50.726;7.080;2023-06-14T12:16:10;1.85;;;1.08;;
27899;SDS011;15243;50.726;7.080;2023-06-14T12:18:39;2.03;;;1.30;;
27899;SDS011;15243;50.726;7.080;2023-06-14T12:21:08;1.20;;;1.10;;
27899;SDS011;15243;50.726;7.080;2023-06-14T12:23:46;1.60;;;1.05;;
27899;SDS011;15243;50.726;7.080;2023-06-14T12:26:15;3.45;;;1.30;;
27899;SDS011;15243;50.726;7.080;2023-06-14T12:28:43;2.97;;;1.40;;
27899;SDS011;15243;50.726;7.080;2023-06-14T12:31:12;3.70;;;1.20;;
27899;SDS011;15243;50.726;7.080;2023-06-14T12:33:40;3.67;;;1.40;;
27899;SDS011;15243;50.726;7.080;2023-06-14T12:36:08;1.70;;;1.05;;
27899;SDS011;15243;50.726;7.080;2023-06-14T12:38:37;3.35;;;1.30;;
27899;SDS011;15243;50.726;7.080;2023-06-14T12:41:04;2.78;;;1.13;;
27899;SDS011;15243;50.726;7.080;2023-06-14T12:43:33;5.05;;;1.10;;
27899;SDS011;15243;50.726;7.080;2023-06-14T12:46:01;2.00;;;1.35;;
27899;SDS011;15243;50.726;7.080;2023-06-14T12:48:28;1.35;;;1.13;;
27899;SDS011;15243;50.726;7.080;2023-06-14T12:50:57;1.17;;;1.00;;
27899;SDS011;15243;50.726;7.080;2023-06-14T12:53:25;5.07;;;1.33;;
27899;SDS011;15243;50.726;7.080;2023-06-14T12:55:52;2.58;;;1.20;;
27899;SDS011;15243;50.726;7.080;2023-06-14T12:58:21;1.98;;;1.50;;
27899;SDS011;15243;50.726;7.080;2023-06-14T13:00:50;2.25;;;1.10;;
27899;SDS011;15243;50.726;7.080;2023-06-14T13:03:17;3.35;;;1.33;;
27899;SDS011;15243;50.726;7.080;2023-06-14T13:05:44;1.80;;;1.08;;
27899;SDS011;15243;50.726;7.080;2023-06-14T13:08:11;5.32;;;1.25;;
27899;SDS011;15243;50.726;7.080;2023-06-14T13:10:39;3.33;;;1.20;;
27899;SDS011;15243;50.726;7.080;2023-06-14T13:13:06;1.92;;;1.10;;
27899;SDS011;15243;50.726;7.080;2023-06-14T13:15:34;3.40;;;1.20;;
27899;SDS011;15243;50.726;7.080;2023-06-14T13:18:01;4.93;;;1.58;;
27899;SDS011;15243;50.726;7.080;2023-06-14T13:20:29;3.25;;;1.20;;
27899;SDS011;15243;50.726;7.080;2023-06-14T13:22:57;3.78;;;1.70;;
27899;SDS011;15243;50.726;7.080;2023-06-14T13:25:26;3.83;;;1.23;;
27899;SDS011;15243;50.726;7.080;2023-06-14T13:27:52;3.92;;;1.30;;
27899;SDS011;15243;50.726;7.080;2023-06-14T13:30:19;4.32;;;1.70;;
27899;SDS011;15243;50.726;7.080;2023-06-14T13:32:47;5.15;;;1.10;;
27899;SDS011;15243;50.726;7.080;2023-06-14T13:35:16;6.07;;;1.27;;
27899;SDS011;15243;50.726;7.080;2023-06-14T13:37:43;2.95;;;1.58;;
27899;SDS011;15243;50.726;7.080;2023-06-14T13:40:11;1.92;;;1.40;;
27899;SDS011;15243;50.726;7.080;2023-06-14T13:42:38;1.52;;;1.33;;
27899;SDS011;15243;50.726;7.080;2023-06-14T13:45:06;1.92;;;1.45;;
27899;SDS011;15243;50.726;7.080;2023-06-14T13:47:34;4.63;;;1.40;;
27899;SDS011;15243;50.726;7.080;2023-06-14T13:50:02;3.20;;;1.35;;
27899;SDS011;15243;50.726;7.080;2023-06-14T13:52:29;4.35;;;1.77;;
27899;SDS011;15243;50.726;7.080;2023-06-14T13:54:56;4.50;;;1.63;;
27899;SDS011;15243;50.726;7.080;2023-06-14T13:57:23;6.25;;;1.40;;
27899;SDS011;15243;50.726;7.080;2023-06-14T13:59:52;2.72;;;1.33;;
27899;SDS011;15243;50.726;7.080;2023-06-14T14:02:21;2.42;;;1.40;;
27899;SDS011;15243;50.726;7.080;2023-06-14T14:04:48;3.05;;;1.27;;
27899;SDS011;15243;50.726;7.080;2023-06-14T14:07:20;7.45;;;1.63;;
27899;SDS011;15243;50.726;7.080;2023-06-14T14:09:48;1.50;;;1.20;;
27899;SDS011;15243;50.726;7.080;2023-06-14T14:12:15;6.13;;;1.52;;
27899;SDS011;15243;50.726;7.080;2023-06-14T14:14:42;3.92;;;1.65;;
27899;SDS011;15243;50.726;7.080;2023-06-14T14:17:09;3.10;;;1.30;;
27899;SDS011;15243;50.726;7.080;2023-06-14T14:19:36;3.10;;;1.35;;
27899;SDS011;15243;50.726;7.080;2023-06-14T14:22:03;3.35;;;1.40;;
27899;SDS011;15243;50.726;7.080;2023-06-14T14:24:30;5.25;;;1.60;;
27899;SDS011;15243;50.726;7.080;2023-06-14T14:26:57;1.88;;;1.40;;
27899;SDS011;15243;50.726;7.080;2023-06-14T14:29:26;4.03;;;1.60;;
27899;SDS011;15243;50.726;7.080;2023-06-14T14:31:56;6.03;;;1.58;;
27899;SDS011;15243;50.726;7.080;2023-06-14T14:34:24;2.38;;;1.50;;
27899;SDS011;15243;50.726;7.080;2023-06-14T14:36:51;3.15;;;2.25;;
27899;SDS011;15243;50.726;7.080;2023-06-14T14:39:19;2.28;;;1.40;;
27899;SDS011;15243;50.726;7.080;2023-06-14T14:41:46;4.18;;;1.63;;
27899;SDS011;15243;50.726;7.080;2023-06-14T14:44:13;5.50;;;1.70;;
27899;SDS011;15243;50.726;7.080;2023-06-14T14:46:40;3.63;;;1.27;;
27899;SDS011;15243;50.726;7.080;2023-06-14T14:49:07;5.03;;;1.58;;
27899;SDS011;15243;50.726;7.080;2023-06-14T14:51:34;2.53;;;1.40;;
27899;SDS011;15243;50.726;7.080;2023-06-14T14:54:01;5.03;;;1.70;;
27899;SDS011;15243;50.726;7.080;2023-06-14T14:56:28;2.75;;;1.55;;
27899;SDS011;15243;50.726;7.080;2023-06-14T14:58:55;2.22;;;1.45;;
27899;SDS011;15243;50.726;7.080;2023-06-14T15:01:22;1.75;;;1.40;;
27899;SDS011;15243;50.726;7.080;2023-06-14T15:03:50;1.55;;;1.45;;
27899;SDS011;15243;50.726;7.080;2023-06-14T15:06:25;7.15;;;1.75;;
27899;SDS011;15243;50.726;7.080;2023-06-14T15:08:53;2.47;;;1.42;;
27899;SDS011;15243;50.726;7.080;2023-06-14T15:11:20;4.05;;;1.60;;
27899;SDS011;15243;50.726;7.080;2023-06-14T15:13:47;8.27;;;1.77;;
27899;SDS011;15243;50.726;7.080;2023-06-14T15:16:15;3.13;;;1.45;;
27899;SDS011;15243;50.726;7.080;2023-06-14T15:18:43;2.13;;;1.63;;